sensor_id;sensor_type;location;lat;lon;timestamp;temperature;humidity
5164;DHT22;2601;50.224;10.126;2022-11-20T00:00:52;-0.70;99.90
5164;DHT22;2601;50.224;10.126;2022-11-20T00:03:17;-0.80;99.90
5164;DHT22;2601;50.224;10.126;2022-11-20T00:05:43;-0.80;99.90
5164;DHT22;2601;50.224;10.126;2022-11-20T00:08:10;-0.80;99.90
5164;DHT22;2601;50.224;10.126;2022-11-20T00:10:39;-0.80;99.90
5164;DHT22;2601;50.224;10.126;2022-11-20T00:13:06;-0.80;99.90
5164;DHT22;2601;50.224;10.126;2022-11-20T00:15:33;-0.70;99.90
5164;DHT22;2601;50.224;10.126;2022-11-20T00:17:58;-0.50;99.90
5164;DHT22;2601;50.224;10.126;2022-11-20T00:20:27;-0.50;99.90
5164;DHT22;2601;50.224;10.126;2022-11-20T00:22:56;-0.50;99.90
5164;DHT22;2601;50.224;10.126;2022-11-20T00:25:21;-0.60;99.90
5164;DHT22;2601;50.224;10.126;2022-11-20T00:27:47;-0.60;99.90
5164;DHT22;2601;50.224;10.126;2022-11-20T00:30:13;-0.70;99.90
5164;DHT22;2601;50.224;10.126;2022-11-20T00:32:39;-0.70;99.90
5164;DHT22;2601;50.224;10.126;2022-11-20T00:35:05;-0.70;99.90
5164;DHT22;2601;50.224;10.126;2022-11-20T00:37:30;-0.70;99.90
5164;DHT22;2601;50.224;10.126;2022-11-20T00:39:56;-0.70;99.90
5164;DHT22;2601;50.224;10.126;2022-11-20T00:42:22;-0.70;99.90
5164;DHT22;2601;50.224;10.126;2022-11-20T00:44:47;-0.70;99.90
5164;DHT22;2601;50.224;10.126;2022-11-20T00:47:13;-0.70;99.90
5164;DHT22;2601;50.224;10.126;2022-11-20T00:49:39;-0.70;99.90
5164;DHT22;2601;50.224;10.126;2022-11-20T00:52:04;-0.80;99.90
5164;DHT22;2601;50.224;10.126;2022-11-20T00:54:30;-0.70;99.90
5164;DHT22;2601;50.224;10.126;2022-11-20T00:56:56;-0.90;99.90
5164;DHT22;2601;50.224;10.126;2022-11-20T00:59:22;-1.00;99.90
5164;DHT22;2601;50.224;10.126;2022-11-20T01:01:47;-0.90;99.90
5164;DHT22;2601;50.224;10.126;2022-11-20T01:04:13;-0.90;99.90
5164;DHT22;2601;50.224;10.126;2022-11-20T01:06:39;-1.00;99.90
5164;DHT22;2601;50.224;10.126;2022-11-20T01:09:11;-1.10;99.90
5164;DHT22;2601;50.224;10.126;2022-11-20T01:11:42;-1.30;99.90
5164;DHT22;2601;50.224;10.126;2022-11-20T01:14:14;-1.30;99.90
5164;DHT22;2601;50.224;10.126;2022-11-20T01:16:43;-1.40;99.90
5164;DHT22;2601;50.224;10.126;2022-11-20T01:19:13;-1.40;99.90
5164;DHT22;2601;50.224;10.126;2022-11-20T01:21:41;-1.40;99.90
5164;DHT22;2601;50.224;10.126;2022-11-20T01:24:10;-1.30;99.90
5164;DHT22;2601;50.224;10.126;2022-11-20T01:26:38;-1.20;99.90
5164;DHT22;2601;50.224;10.126;2022-11-20T01:29:04;-1.20;99.90
5164;DHT22;2601;50.224;10.126;2022-11-20T01:31:33;-1.10;99.90
5164;DHT22;2601;50.224;10.126;2022-11-20T01:34:01;-1.10;99.90
5164;DHT22;2601;50.224;10.126;2022-11-20T01:36:29;-1.10;99.90
5164;DHT22;2601;50.224;10.126;2022-11-20T01:38:58;-1.20;99.90
5164;DHT22;2601;50.224;10.126;2022-11-20T01:41:26;-1.30;99.90
5164;DHT22;2601;50.224;10.126;2022-11-20T01:44:13;-1.40;99.90
5164;DHT22;2601;50.224;10.126;2022-11-20T01:46:48;-1.30;99.90
5164;DHT22;2601;50.224;10.126;2022-11-20T01:49:24;-1.30;99.90
5164;DHT22;2601;50.224;10.126;2022-11-20T01:51:58;-1.30;99.90
5164;DHT22;2601;50.224;10.126;2022-11-20T01:54:31;-1.40;99.90
5164;DHT22;2601;50.224;10.126;2022-11-20T01:57:00;-1.40;99.90
5164;DHT22;2601;50.224;10.126;2022-11-20T01:59:27;-1.40;99.90
5164;DHT22;2601;50.224;10.126;2022-11-20T02:01:54;-1.20;99.90
5164;DHT22;2601;50.224;10.126;2022-11-20T02:04:21;-1.20;99.90
5164;DHT22;2601;50.224;10.126;2022-11-20T02:07:00;-1.30;99.90
5164;DHT22;2601;50.224;10.126;2022-11-20T02:09:26;-1.30;99.90
5164;DHT22;2601;50.224;10.126;2022-11-20T02:11:52;-1.20;99.90
5164;DHT22;2601;50.224;10.126;2022-11-20T02:14:19;-1.20;99.90
5164;DHT22;2601;50.224;10.126;2022-11-20T02:16:47;-1.20;99.90
5164;DHT22;2601;50.224;10.126;2022-11-20T02:19:22;-1.10;99.90
5164;DHT22;2601;50.224;10.126;2022-11-20T02:24:23;-0.90;99.90
5164;DHT22;2601;50.224;10.126;2022-11-20T02:27:04;-0.90;99.90
5164;DHT22;2601;50.224;10.126;2022-11-20T02:29:57;-1.00;99.90
5164;DHT22;2601;50.224;10.126;2022-11-20T02:32:34;-1.00;99.90
5164;DHT22;2601;50.224;10.126;2022-11-20T02:35:40;-0.90;99.90
5164;DHT22;2601;50.224;10.126;2022-11-20T02:37:58;-0.90;99.90
5164;DHT22;2601;50.224;10.126;2022-11-20T02:40:25;-0.90;99.90
5164;DHT22;2601;50.224;10.126;2022-11-20T02:42:54;-1.10;99.90
5164;DHT22;2601;50.224;10.126;2022-11-20T02:45:21;-1.10;99.90
5164;DHT22;2601;50.224;10.126;2022-11-20T02:47:48;-0.90;99.90
5164;DHT22;2601;50.224;10.126;2022-11-20T02:50:14;-0.90;99.90
5164;DHT22;2601;50.224;10.126;2022-11-20T02:52:39;-0.90;99.90
5164;DHT22;2601;50.224;10.126;2022-11-20T02:55:06;-0.90;99.90
5164;DHT22;2601;50.224;10.126;2022-11-20T02:57:31;-0.90;99.90
5164;DHT22;2601;50.224;10.126;2022-11-20T02:59:57;-1.00;99.90
5164;DHT22;2601;50.224;10.126;2022-11-20T03:02:23;-0.90;99.90
5164;DHT22;2601;50.224;10.126;2022-11-20T03:04:48;-0.80;99.90
5164;DHT22;2601;50.224;10.126;2022-11-20T03:07:14;-0.90;99.90
5164;DHT22;2601;50.224;10.126;2022-11-20T03:09:40;-0.90;99.90
5164;DHT22;2601;50.224;10.126;2022-11-20T03:12:06;-0.90;99.90
5164;DHT22;2601;50.224;10.126;2022-11-20T03:14:31;-0.80;99.90
5164;DHT22;2601;50.224;10.126;2022-11-20T03:16:57;-0.90;99.90
5164;DHT22;2601;50.224;10.126;2022-11-20T03:19:23;-0.80;99.90
5164;DHT22;2601;50.224;10.126;2022-11-20T03:21:49;-0.80;99.90
5164;DHT22;2601;50.224;10.126;2022-11-20T03:24:15;-0.70;99.90
5164;DHT22;2601;50.224;10.126;2022-11-20T03:26:41;-0.70;99.90
5164;DHT22;2601;50.224;10.126;2022-11-20T03:29:07;-0.60;99.90
5164;DHT22;2601;50.224;10.126;2022-11-20T03:31:38;-0.60;99.90
5164;DHT22;2601;50.224;10.126;2022-11-20T03:34:08;-0.80;99.90
5164;DHT22;2601;50.224;10.126;2022-11-20T03:36:34;-0.80;99.90
5164;DHT22;2601;50.224;10.126;2022-11-20T03:39:00;-0.70;99.90
5164;DHT22;2601;50.224;10.126;2022-11-20T03:41:28;-0.60;99.90
5164;DHT22;2601;50.224;10.126;2022-11-20T03:43:59;-0.60;99.90
5164;DHT22;2601;50.224;10.126;2022-11-20T03:46:26;-0.60;99.90
5164;DHT22;2601;50.224;10.126;2022-11-20T03:48:52;-0.80;99.90
5164;DHT22;2601;50.224;10.126;2022-11-20T03:51:23;-0.70;99.90
5164;DHT22;2601;50.224;10.126;2022-11-20T03:53:51;-0.90;99.90
5164;DHT22;2601;50.224;10.126;2022-11-20T03:56:19;-0.90;99.90
5164;DHT22;2601;50.224;10.126;2022-11-20T03:58:45;-0.80;99.90
5164;DHT22;2601;50.224;10.126;2022-11-20T04:01:18;-0.80;99.90
5164;DHT22;2601;50.224;10.126;2022-11-20T04:03:44;-0.80;99.90
5164;DHT22;2601;50.224;10.126;2022-11-20T04:06:21;-0.60;99.90
5164;DHT22;2601;50.224;10.126;2022-11-20T04:08:48;-0.60;99.90
5164;DHT22;2601;50.224;10.126;2022-11-20T04:11:22;-0.60;99.90
5164;DHT22;2601;50.224;10.126;2022-11-20T04:13:58;-0.70;99.90
5164;DHT22;2601;50.224;10.126;2022-11-20T04:16:25;-0.70;99.90
5164;DHT22;2601;50.224;10.126;2022-11-20T04:18:55;-0.80;99.90
5164;DHT22;2601;50.224;10.126;2022-11-20T04:21:22;-0.70;99.90
5164;DHT22;2601;50.224;10.126;2022-11-20T04:23:49;-0.70;99.90
5164;DHT22;2601;50.224;10.126;2022-11-20T04:26:15;-0.70;99.90
5164;DHT22;2601;50.224;10.126;2022-11-20T04:28:41;-0.70;99.90
5164;DHT22;2601;50.224;10.126;2022-11-20T04:31:09;-0.60;99.90
5164;DHT22;2601;50.224;10.126;2022-11-20T04:33:35;-0.60;99.90
5164;DHT22;2601;50.224;10.126;2022-11-20T04:38:31;-0.70;99.90
5164;DHT22;2601;50.224;10.126;2022-11-20T04:41:02;-0.90;99.90
5164;DHT22;2601;50.224;10.126;2022-11-20T04:43:28;-0.90;99.90
5164;DHT22;2601;50.224;10.126;2022-11-20T04:45:55;-0.90;99.90
5164;DHT22;2601;50.224;10.126;2022-11-20T04:48:21;-0.80;99.90
5164;DHT22;2601;50.224;10.126;2022-11-20T04:50:47;-0.70;99.90
5164;DHT22;2601;50.224;10.126;2022-11-20T04:53:13;-0.70;99.90
5164;DHT22;2601;50.224;10.126;2022-11-20T04:55:39;-0.60;99.90
5164;DHT22;2601;50.224;10.126;2022-11-20T04:58:05;-0.70;99.90
5164;DHT22;2601;50.224;10.126;2022-11-20T05:00:31;-0.70;99.90
5164;DHT22;2601;50.224;10.126;2022-11-20T05:02:57;-0.80;99.90
5164;DHT22;2601;50.224;10.126;2022-11-20T05:05:23;-0.80;99.90
5164;DHT22;2601;50.224;10.126;2022-11-20T05:07:50;-0.70;99.90
5164;DHT22;2601;50.224;10.126;2022-11-20T05:10:15;-0.70;99.90
5164;DHT22;2601;50.224;10.126;2022-11-20T05:12:41;-0.70;99.90
5164;DHT22;2601;50.224;10.126;2022-11-20T05:15:07;-0.80;99.90
5164;DHT22;2601;50.224;10.126;2022-11-20T05:17:33;-0.70;99.90
5164;DHT22;2601;50.224;10.126;2022-11-20T05:19:59;-0.70;99.90
5164;DHT22;2601;50.224;10.126;2022-11-20T05:22:25;-0.50;99.90
5164;DHT22;2601;50.224;10.126;2022-11-20T05:24:50;-0.60;99.90
5164;DHT22;2601;50.224;10.126;2022-11-20T05:27:23;-0.60;99.90
5164;DHT22;2601;50.224;10.126;2022-11-20T05:29:49;-0.60;99.90
5164;DHT22;2601;50.224;10.126;2022-11-20T05:32:14;-0.60;99.90
5164;DHT22;2601;50.224;10.126;2022-11-20T05:34:40;-0.30;99.90
5164;DHT22;2601;50.224;10.126;2022-11-20T05:37:06;-0.30;99.90
5164;DHT22;2601;50.224;10.126;2022-11-20T05:39:32;-0.40;99.90
5164;DHT22;2601;50.224;10.126;2022-11-20T05:41:57;-0.40;99.90
5164;DHT22;2601;50.224;10.126;2022-11-20T05:44:41;-0.50;99.90
5164;DHT22;2601;50.224;10.126;2022-11-20T05:47:07;-0.60;99.90
5164;DHT22;2601;50.224;10.126;2022-11-20T05:49:33;-0.60;99.90
5164;DHT22;2601;50.224;10.126;2022-11-20T05:51:58;-0.60;99.90
5164;DHT22;2601;50.224;10.126;2022-11-20T05:54:24;-0.50;99.90
5164;DHT22;2601;50.224;10.126;2022-11-20T05:56:50;-0.60;99.90
5164;DHT22;2601;50.224;10.126;2022-11-20T05:59:15;-0.60;99.90
5164;DHT22;2601;50.224;10.126;2022-11-20T06:01:41;-0.50;99.90
5164;DHT22;2601;50.224;10.126;2022-11-20T06:04:07;-0.50;99.90
5164;DHT22;2601;50.224;10.126;2022-11-20T06:06:33;-0.50;99.90
5164;DHT22;2601;50.224;10.126;2022-11-20T06:08:58;-0.50;99.90
5164;DHT22;2601;50.224;10.126;2022-11-20T06:11:25;-0.50;99.90
5164;DHT22;2601;50.224;10.126;2022-11-20T06:13:50;-0.50;99.90
5164;DHT22;2601;50.224;10.126;2022-11-20T06:16:18;-0.50;99.90
5164;DHT22;2601;50.224;10.126;2022-11-20T06:18:45;-0.30;99.90
5164;DHT22;2601;50.224;10.126;2022-11-20T06:21:16;-0.50;99.90
5164;DHT22;2601;50.224;10.126;2022-11-20T06:23:43;-0.50;99.90
5164;DHT22;2601;50.224;10.126;2022-11-20T06:26:12;-0.50;99.90
5164;DHT22;2601;50.224;10.126;2022-11-20T06:28:38;-0.50;99.90
5164;DHT22;2601;50.224;10.126;2022-11-20T06:31:05;-0.30;99.90
5164;DHT22;2601;50.224;10.126;2022-11-20T06:33:31;-0.10;99.90
5164;DHT22;2601;50.224;10.126;2022-11-20T06:35:58;-0.20;99.90
5164;DHT22;2601;50.224;10.126;2022-11-20T06:38:26;-0.20;99.90
5164;DHT22;2601;50.224;10.126;2022-11-20T06:40:52;-0.20;99.90
5164;DHT22;2601;50.224;10.126;2022-11-20T06:43:18;-0.30;99.90
5164;DHT22;2601;50.224;10.126;2022-11-20T06:45:44;-0.20;99.90
5164;DHT22;2601;50.224;10.126;2022-11-20T06:48:10;-0.20;99.90
5164;DHT22;2601;50.224;10.126;2022-11-20T06:50:38;-0.20;99.90
5164;DHT22;2601;50.224;10.126;2022-11-20T06:53:05;-0.40;99.90
5164;DHT22;2601;50.224;10.126;2022-11-20T06:55:31;-0.30;99.90
5164;DHT22;2601;50.224;10.126;2022-11-20T06:57:57;-0.20;99.90
5164;DHT22;2601;50.224;10.126;2022-11-20T07:00:23;-0.20;99.90
5164;DHT22;2601;50.224;10.126;2022-11-20T07:02:49;-0.20;99.90
5164;DHT22;2601;50.224;10.126;2022-11-20T07:05:15;-0.20;99.90
5164;DHT22;2601;50.224;10.126;2022-11-20T07:07:41;-0.20;99.90
5164;DHT22;2601;50.224;10.126;2022-11-20T07:10:08;-0.20;99.90
5164;DHT22;2601;50.224;10.126;2022-11-20T07:12:33;-0.10;99.90
5164;DHT22;2601;50.224;10.126;2022-11-20T07:14:59;-0.10;99.90
5164;DHT22;2601;50.224;10.126;2022-11-20T07:17:25;-0.30;99.90
5164;DHT22;2601;50.224;10.126;2022-11-20T07:19:51;-0.10;99.90
5164;DHT22;2601;50.224;10.126;2022-11-20T07:22:16;-0.20;99.90
5164;DHT22;2601;50.224;10.126;2022-11-20T07:24:42;-0.20;99.90
5164;DHT22;2601;50.224;10.126;2022-11-20T07:27:08;0.00;99.90
5164;DHT22;2601;50.224;10.126;2022-11-20T07:29:33;-0.10;99.90
5164;DHT22;2601;50.224;10.126;2022-11-20T07:31:59;0.00;99.90
5164;DHT22;2601;50.224;10.126;2022-11-20T07:34:25;0.10;99.90
5164;DHT22;2601;50.224;10.126;2022-11-20T07:36:51;0.20;99.90
5164;DHT22;2601;50.224;10.126;2022-11-20T07:39:16;0.10;99.90
5164;DHT22;2601;50.224;10.126;2022-11-20T07:41:42;0.10;99.90
5164;DHT22;2601;50.224;10.126;2022-11-20T07:44:08;0.20;99.90
5164;DHT22;2601;50.224;10.126;2022-11-20T07:46:33;0.20;99.90
5164;DHT22;2601;50.224;10.126;2022-11-20T07:48:59;0.10;99.90
5164;DHT22;2601;50.224;10.126;2022-11-20T07:51:25;0.00;99.90
5164;DHT22;2601;50.224;10.126;2022-11-20T07:53:54;0.00;99.90
5164;DHT22;2601;50.224;10.126;2022-11-20T07:56:20;0.00;99.90
5164;DHT22;2601;50.224;10.126;2022-11-20T07:58:47;-0.10;99.90
5164;DHT22;2601;50.224;10.126;2022-11-20T08:01:12;0.00;99.90
5164;DHT22;2601;50.224;10.126;2022-11-20T08:03:40;-0.10;99.90
5164;DHT22;2601;50.224;10.126;2022-11-20T08:06:06;0.00;99.90
5164;DHT22;2601;50.224;10.126;2022-11-20T08:08:32;0.00;99.90
5164;DHT22;2601;50.224;10.126;2022-11-20T08:10:58;0.20;99.90
5164;DHT22;2601;50.224;10.126;2022-11-20T08:13:43;0.20;99.90
5164;DHT22;2601;50.224;10.126;2022-11-20T08:16:27;0.00;99.90
5164;DHT22;2601;50.224;10.126;2022-11-20T08:18:53;0.10;99.90
5164;DHT22;2601;50.224;10.126;2022-11-20T08:21:19;0.10;99.90
5164;DHT22;2601;50.224;10.126;2022-11-20T08:23:45;0.20;99.90
5164;DHT22;2601;50.224;10.126;2022-11-20T08:26:10;0.20;99.90
5164;DHT22;2601;50.224;10.126;2022-11-20T08:28:37;0.30;99.90
5164;DHT22;2601;50.224;10.126;2022-11-20T08:31:03;0.40;99.90
5164;DHT22;2601;50.224;10.126;2022-11-20T08:33:31;0.40;99.90
5164;DHT22;2601;50.224;10.126;2022-11-20T08:36:02;0.30;99.90
5164;DHT22;2601;50.224;10.126;2022-11-20T08:38:29;0.20;99.90
5164;DHT22;2601;50.224;10.126;2022-11-20T08:40:59;0.40;99.90
5164;DHT22;2601;50.224;10.126;2022-11-20T08:43:44;0.50;99.90
5164;DHT22;2601;50.224;10.126;2022-11-20T08:46:10;0.30;99.90
5164;DHT22;2601;50.224;10.126;2022-11-20T08:48:36;0.40;99.90
5164;DHT22;2601;50.224;10.126;2022-11-20T08:51:02;0.40;99.90
5164;DHT22;2601;50.224;10.126;2022-11-20T08:53:28;0.40;99.90
5164;DHT22;2601;50.224;10.126;2022-11-20T08:55:53;0.40;99.90
5164;DHT22;2601;50.224;10.126;2022-11-20T08:58:19;0.50;99.90
5164;DHT22;2601;50.224;10.126;2022-11-20T09:00:45;0.50;99.90
5164;DHT22;2601;50.224;10.126;2022-11-20T09:03:11;0.50;99.90
5164;DHT22;2601;50.224;10.126;2022-11-20T09:05:38;0.40;99.90
5164;DHT22;2601;50.224;10.126;2022-11-20T09:08:04;0.40;99.90
5164;DHT22;2601;50.224;10.126;2022-11-20T09:10:30;0.30;99.90
5164;DHT22;2601;50.224;10.126;2022-11-20T09:12:56;0.40;99.90
5164;DHT22;2601;50.224;10.126;2022-11-20T09:15:22;0.50;99.90
5164;DHT22;2601;50.224;10.126;2022-11-20T09:17:56;0.40;99.90
5164;DHT22;2601;50.224;10.126;2022-11-20T09:20:24;0.40;99.90
5164;DHT22;2601;50.224;10.126;2022-11-20T09:22:50;0.50;99.90
5164;DHT22;2601;50.224;10.126;2022-11-20T09:25:16;0.50;99.90
5164;DHT22;2601;50.224;10.126;2022-11-20T09:27:41;0.50;99.90
5164;DHT22;2601;50.224;10.126;2022-11-20T09:30:10;0.80;99.90
5164;DHT22;2601;50.224;10.126;2022-11-20T09:32:36;0.70;99.90
5164;DHT22;2601;50.224;10.126;2022-11-20T09:35:05;0.70;99.90
5164;DHT22;2601;50.224;10.126;2022-11-20T09:37:31;0.70;99.90
5164;DHT22;2601;50.224;10.126;2022-11-20T09:39:57;0.70;99.90
5164;DHT22;2601;50.224;10.126;2022-11-20T09:42:49;0.60;99.90
5164;DHT22;2601;50.224;10.126;2022-11-20T09:48:29;0.90;99.90
5164;DHT22;2601;50.224;10.126;2022-11-20T09:54:20;1.20;99.90
5164;DHT22;2601;50.224;10.126;2022-11-20T09:56:53;1.10;99.90
5164;DHT22;2601;50.224;10.126;2022-11-20T09:59:50;1.30;99.90
5164;DHT22;2601;50.224;10.126;2022-11-20T10:02:37;1.20;99.90
5164;DHT22;2601;50.224;10.126;2022-11-20T10:05:28;1.00;99.90
5164;DHT22;2601;50.224;10.126;2022-11-20T10:21:55;1.40;99.90
5164;DHT22;2601;50.224;10.126;2022-11-20T10:29:42;1.40;99.90
5164;DHT22;2601;50.224;10.126;2022-11-20T10:32:19;1.30;99.90
5164;DHT22;2601;50.224;10.126;2022-11-20T10:37:35;1.30;99.90
5164;DHT22;2601;50.224;10.126;2022-11-20T10:40:22;1.30;99.90
5164;DHT22;2601;50.224;10.126;2022-11-20T10:43:18;1.40;99.90
5164;DHT22;2601;50.224;10.126;2022-11-20T10:46:05;1.50;99.90
5164;DHT22;2601;50.224;10.126;2022-11-20T10:48:34;1.70;99.90
5164;DHT22;2601;50.224;10.126;2022-11-20T10:51:35;1.80;99.90
5164;DHT22;2601;50.224;10.126;2022-11-20T10:56:51;2.20;99.90
5164;DHT22;2601;50.224;10.126;2022-11-20T10:59:46;2.10;99.90
5164;DHT22;2601;50.224;10.126;2022-11-20T11:02:39;2.10;99.90
5164;DHT22;2601;50.224;10.126;2022-11-20T11:07:47;2.00;99.90
5164;DHT22;2601;50.224;10.126;2022-11-20T11:10:21;2.20;99.90
5164;DHT22;2601;50.224;10.126;2022-11-20T11:12:48;2.30;99.90
5164;DHT22;2601;50.224;10.126;2022-11-20T11:18:02;2.30;99.90
5164;DHT22;2601;50.224;10.126;2022-11-20T11:20:28;2.40;99.90
5164;DHT22;2601;50.224;10.126;2022-11-20T11:22:58;2.50;99.90
5164;DHT22;2601;50.224;10.126;2022-11-20T11:27:52;2.90;99.90
5164;DHT22;2601;50.224;10.126;2022-11-20T11:30:19;3.00;99.90
5164;DHT22;2601;50.224;10.126;2022-11-20T11:32:46;3.00;99.90
5164;DHT22;2601;50.224;10.126;2022-11-20T11:35:32;2.90;99.90
5164;DHT22;2601;50.224;10.126;2022-11-20T11:38:06;3.10;99.90
5164;DHT22;2601;50.224;10.126;2022-11-20T11:40:35;3.10;99.90
5164;DHT22;2601;50.224;10.126;2022-11-20T11:43:05;2.90;99.90
5164;DHT22;2601;50.224;10.126;2022-11-20T11:45:54;2.90;99.90
5164;DHT22;2601;50.224;10.126;2022-11-20T11:48:21;3.10;99.90
5164;DHT22;2601;50.224;10.126;2022-11-20T11:50:50;3.20;99.90
5164;DHT22;2601;50.224;10.126;2022-11-20T11:53:19;3.30;99.90
5164;DHT22;2601;50.224;10.126;2022-11-20T11:58:43;3.30;99.90
5164;DHT22;2601;50.224;10.126;2022-11-20T12:06:50;3.30;99.90
5164;DHT22;2601;50.224;10.126;2022-11-20T12:09:20;3.40;99.90
5164;DHT22;2601;50.224;10.126;2022-11-20T12:11:54;3.30;99.90
5164;DHT22;2601;50.224;10.126;2022-11-20T12:14:30;3.50;99.90
5164;DHT22;2601;50.224;10.126;2022-11-20T12:16:58;3.40;99.90
5164;DHT22;2601;50.224;10.126;2022-11-20T12:19:29;3.60;99.90
5164;DHT22;2601;50.224;10.126;2022-11-20T12:25:07;4.70;99.90
5164;DHT22;2601;50.224;10.126;2022-11-20T12:30:33;5.50;99.90
5164;DHT22;2601;50.224;10.126;2022-11-20T12:38:58;4.90;99.90
5164;DHT22;2601;50.224;10.126;2022-11-20T12:41:51;4.50;99.90
5164;DHT22;2601;50.224;10.126;2022-11-20T12:44:59;3.90;99.90
5164;DHT22;2601;50.224;10.126;2022-11-20T12:47:55;3.50;99.90
5164;DHT22;2601;50.224;10.126;2022-11-20T13:01:31;3.20;99.90
5164;DHT22;2601;50.224;10.126;2022-11-20T13:07:06;3.10;99.90
5164;DHT22;2601;50.224;10.126;2022-11-20T13:09:35;3.10;99.90
5164;DHT22;2601;50.224;10.126;2022-11-20T13:12:40;3.10;99.90
5164;DHT22;2601;50.224;10.126;2022-11-20T13:17:54;2.90;99.90
5164;DHT22;2601;50.224;10.126;2022-11-20T13:20:21;2.80;99.90
5164;DHT22;2601;50.224;10.126;2022-11-20T13:22:55;2.80;99.90
5164;DHT22;2601;50.224;10.126;2022-11-20T13:25:42;2.80;99.90
5164;DHT22;2601;50.224;10.126;2022-11-20T13:30:48;2.90;99.90
5164;DHT22;2601;50.224;10.126;2022-11-20T13:38:23;2.90;99.90
5164;DHT22;2601;50.224;10.126;2022-11-20T13:40:54;3.00;99.90
5164;DHT22;2601;50.224;10.126;2022-11-20T13:43:27;3.00;99.90
5164;DHT22;2601;50.224;10.126;2022-11-20T13:45:55;3.10;99.90
5164;DHT22;2601;50.224;10.126;2022-11-20T13:48:23;3.20;99.90
5164;DHT22;2601;50.224;10.126;2022-11-20T13:56:43;3.10;99.90
5164;DHT22;2601;50.224;10.126;2022-11-20T13:59:40;3.10;99.90
5164;DHT22;2601;50.224;10.126;2022-11-20T14:02:12;3.00;99.90
5164;DHT22;2601;50.224;10.126;2022-11-20T14:04:42;3.00;99.90
5164;DHT22;2601;50.224;10.126;2022-11-20T14:07:09;3.00;99.90
5164;DHT22;2601;50.224;10.126;2022-11-20T14:09:35;3.00;99.90
5164;DHT22;2601;50.224;10.126;2022-11-20T14:12:02;3.10;99.90
5164;DHT22;2601;50.224;10.126;2022-11-20T14:14:30;3.10;99.90
5164;DHT22;2601;50.224;10.126;2022-11-20T14:17:09;3.00;99.90
5164;DHT22;2601;50.224;10.126;2022-11-20T14:19:44;2.90;99.90
5164;DHT22;2601;50.224;10.126;2022-11-20T14:24:47;2.70;99.90
5164;DHT22;2601;50.224;10.126;2022-11-20T14:27:18;2.70;99.90
5164;DHT22;2601;50.224;10.126;2022-11-20T14:29:46;2.70;99.90
5164;DHT22;2601;50.224;10.126;2022-11-20T14:32:18;2.70;99.90
5164;DHT22;2601;50.224;10.126;2022-11-20T14:34:47;2.70;99.90
5164;DHT22;2601;50.224;10.126;2022-11-20T14:37:21;2.70;99.90
5164;DHT22;2601;50.224;10.126;2022-11-20T14:39:53;2.70;99.90
5164;DHT22;2601;50.224;10.126;2022-11-20T14:42:23;2.70;99.90
5164;DHT22;2601;50.224;10.126;2022-11-20T14:44:51;2.60;99.90
5164;DHT22;2601;50.224;10.126;2022-11-20T14:47:21;2.60;99.90
5164;DHT22;2601;50.224;10.126;2022-11-20T14:49:48;2.50;99.90
5164;DHT22;2601;50.224;10.126;2022-11-20T14:52:22;2.60;99.90
5164;DHT22;2601;50.224;10.126;2022-11-20T14:54:53;2.60;99.90
5164;DHT22;2601;50.224;10.126;2022-11-20T15:02:45;2.50;99.90
5164;DHT22;2601;50.224;10.126;2022-11-20T15:05:11;2.50;99.90
5164;DHT22;2601;50.224;10.126;2022-11-20T15:07:39;2.50;99.90
5164;DHT22;2601;50.224;10.126;2022-11-20T15:10:09;2.60;99.90
5164;DHT22;2601;50.224;10.126;2022-11-20T15:15:20;2.50;99.90
5164;DHT22;2601;50.224;10.126;2022-11-20T15:17:46;2.60;99.90
5164;DHT22;2601;50.224;10.126;2022-11-20T15:20:14;2.50;99.90
5164;DHT22;2601;50.224;10.126;2022-11-20T15:22:40;2.60;99.90
5164;DHT22;2601;50.224;10.126;2022-11-20T15:25:14;2.60;99.90
5164;DHT22;2601;50.224;10.126;2022-11-20T15:27:40;2.60;99.90
5164;DHT22;2601;50.224;10.126;2022-11-20T15:30:15;2.60;99.90
5164;DHT22;2601;50.224;10.126;2022-11-20T15:32:42;2.60;99.90
5164;DHT22;2601;50.224;10.126;2022-11-20T15:35:09;2.50;99.90
5164;DHT22;2601;50.224;10.126;2022-11-20T15:37:35;2.50;99.90
5164;DHT22;2601;50.224;10.126;2022-11-20T15:40:02;2.40;99.90
5164;DHT22;2601;50.224;10.126;2022-11-20T15:42:28;2.40;99.90
5164;DHT22;2601;50.224;10.126;2022-11-20T15:44:53;2.40;99.90
5164;DHT22;2601;50.224;10.126;2022-11-20T15:47:22;2.40;99.90
5164;DHT22;2601;50.224;10.126;2022-11-20T15:49:50;2.30;99.90
5164;DHT22;2601;50.224;10.126;2022-11-20T15:52:16;2.30;99.90
5164;DHT22;2601;50.224;10.126;2022-11-20T15:54:41;2.30;99.90
5164;DHT22;2601;50.224;10.126;2022-11-20T15:57:07;2.20;99.90
5164;DHT22;2601;50.224;10.126;2022-11-20T15:59:33;2.30;99.90
5164;DHT22;2601;50.224;10.126;2022-11-20T16:01:59;2.30;99.90
5164;DHT22;2601;50.224;10.126;2022-11-20T16:04:25;2.30;99.90
5164;DHT22;2601;50.224;10.126;2022-11-20T16:06:51;2.40;99.90
5164;DHT22;2601;50.224;10.126;2022-11-20T16:09:16;2.30;99.90
5164;DHT22;2601;50.224;10.126;2022-11-20T16:11:43;2.30;99.90
5164;DHT22;2601;50.224;10.126;2022-11-20T16:14:10;2.30;99.90
5164;DHT22;2601;50.224;10.126;2022-11-20T16:16:54;2.50;99.90
5164;DHT22;2601;50.224;10.126;2022-11-20T16:19:20;2.50;99.90
5164;DHT22;2601;50.224;10.126;2022-11-20T16:21:46;2.50;99.90
5164;DHT22;2601;50.224;10.126;2022-11-20T16:24:13;2.60;99.90
5164;DHT22;2601;50.224;10.126;2022-11-20T16:26:40;2.50;99.90
5164;DHT22;2601;50.224;10.126;2022-11-20T16:29:06;2.40;99.90
5164;DHT22;2601;50.224;10.126;2022-11-20T16:31:33;2.40;99.90
5164;DHT22;2601;50.224;10.126;2022-11-20T16:34:01;2.40;99.90
5164;DHT22;2601;50.224;10.126;2022-11-20T16:36:27;2.40;99.90
5164;DHT22;2601;50.224;10.126;2022-11-20T16:39:03;2.40;99.90
5164;DHT22;2601;50.224;10.126;2022-11-20T16:41:31;2.40;99.90
5164;DHT22;2601;50.224;10.126;2022-11-20T16:43:59;2.40;99.90
5164;DHT22;2601;50.224;10.126;2022-11-20T16:46:27;2.40;99.90
5164;DHT22;2601;50.224;10.126;2022-11-20T16:49:04;2.40;99.90
5164;DHT22;2601;50.224;10.126;2022-11-20T16:51:33;2.40;99.90
5164;DHT22;2601;50.224;10.126;2022-11-20T16:54:01;2.30;99.90
5164;DHT22;2601;50.224;10.126;2022-11-20T16:56:27;2.40;99.90
5164;DHT22;2601;50.224;10.126;2022-11-20T16:58:56;2.40;99.90
5164;DHT22;2601;50.224;10.126;2022-11-20T17:01:23;2.40;99.90
5164;DHT22;2601;50.224;10.126;2022-11-20T17:03:57;2.40;99.90
5164;DHT22;2601;50.224;10.126;2022-11-20T17:06:37;2.40;99.90
5164;DHT22;2601;50.224;10.126;2022-11-20T17:09:04;2.40;99.90
5164;DHT22;2601;50.224;10.126;2022-11-20T17:11:30;2.60;99.90
5164;DHT22;2601;50.224;10.126;2022-11-20T17:13:58;2.60;99.90
5164;DHT22;2601;50.224;10.126;2022-11-20T17:16:32;2.60;99.90
5164;DHT22;2601;50.224;10.126;2022-11-20T17:18:58;2.60;99.90
5164;DHT22;2601;50.224;10.126;2022-11-20T17:21:24;2.50;99.90
5164;DHT22;2601;50.224;10.126;2022-11-20T17:23:51;2.50;99.90
5164;DHT22;2601;50.224;10.126;2022-11-20T17:26:21;2.50;99.90
5164;DHT22;2601;50.224;10.126;2022-11-20T17:28:55;2.50;99.90
5164;DHT22;2601;50.224;10.126;2022-11-20T17:31:21;2.50;99.90
5164;DHT22;2601;50.224;10.126;2022-11-20T17:33:47;2.50;99.90
5164;DHT22;2601;50.224;10.126;2022-11-20T17:36:15;2.50;99.90
5164;DHT22;2601;50.224;10.126;2022-11-20T17:38:41;2.50;99.90
5164;DHT22;2601;50.224;10.126;2022-11-20T17:41:09;2.50;99.90
5164;DHT22;2601;50.224;10.126;2022-11-20T17:43:35;2.70;99.90
5164;DHT22;2601;50.224;10.126;2022-11-20T17:48:31;2.90;99.90
5164;DHT22;2601;50.224;10.126;2022-11-20T17:51:01;2.80;99.90
5164;DHT22;2601;50.224;10.126;2022-11-20T17:53:28;2.90;99.90
5164;DHT22;2601;50.224;10.126;2022-11-20T17:55:57;2.80;99.90